Time;durP1;ratioP1;P1;durP2;ratioP2;P2;SDS_P1;SDS_P2;PMS_P1;PMS_P2;Temp;Humidity;BMP_temperature;BMP_pressure;BME280_temperature;BME280_humidity;BME280_pressure;Samples;Min_cycle;Max_cycle;Signal;HPM_P1;HPM_P2
2022/01/02 00:02:34;;;;;;;13.23;8.90;;;11.20;99.90;;;;;;5005712;28;20108;-83
2022/01/02 00:05:23;;;;;;;13.18;9.07;;;11.20;99.90;;;;;;4983897;28;20053;-82
2022/01/02 00:08:10;;;;;;;12.48;8.98;;;11.20;99.90;;;;;;4996320;28;20450;-83
2022/01/02 00:10:58;;;;;;;18.70;9.07;;;11.20;99.90;;;;;;5005979;28;20100;-84
2022/01/02 00:13:47;;;;;;;12.82;8.95;;;11.20;99.90;;;;;;4988955;28;20042;-85
2022/01/02 00:16:37;;;;;;;14.38;9.38;;;11.20;99.90;;;;;;5018438;28;20408;-85
2022/01/02 00:19:29;;;;;;;12.55;8.93;;;11.10;99.90;;;;;;4991019;28;20068;-82
2022/01/02 00:22:16;;;;;;;12.68;8.85;;;11.10;99.90;;;;;;5009949;28;20732;-85
2022/01/02 00:25:05;;;;;;;16.20;9.35;;;11.10;99.90;;;;;;4977718;28;20052;-85
2022/01/02 00:27:51;;;;;;;15.05;9.75;;;11.10;99.90;;;;;;5003725;28;20079;-85
2022/01/02 00:30:37;;;;;;;15.98;10.82;;;11.10;99.90;;;;;;5009874;28;20508;-86
2022/01/02 00:33:23;;;;;;;15.63;10.25;;;11.10;99.90;;;;;;5010212;28;20060;-85
2022/01/02 00:36:08;;;;;;;16.00;10.10;;;11.10;99.90;;;;;;5005959;28;20034;-85
2022/01/02 00:38:53;;;;;;;17.02;9.38;;;11.00;99.90;;;;;;5008224;28;20043;-85
2022/01/02 00:41:57;;;;;;;13.13;9.82;;;11.00;99.90;;;;;;5003203;28;20410;-84
2022/01/02 00:45:06;;;;;;;14.52;10.23;;;11.00;99.90;;;;;;5007045;28;20057;-86
2022/01/02 00:48:00;;;;;;;15.68;9.90;;;11.00;99.90;;;;;;5009497;28;20041;-86
2022/01/02 00:50:50;;;;;;;15.80;10.25;;;11.00;99.90;;;;;;5009258;28;20056;-85
2022/01/02 00:53:37;;;;;;;15.05;9.68;;;11.00;99.90;;;;;;5023605;28;20104;-86
2022/01/02 00:56:28;;;;;;;17.85;9.88;;;11.10;99.90;;;;;;5010990;28;20037;-88
2022/01/02 00:59:27;;;;;;;16.77;10.52;;;11.10;99.90;;;;;;5008964;28;20049;-88
2022/01/02 01:02:17;;;;;;;14.48;10.07;;;11.10;99.90;;;;;;4996218;28;20721;-89
2022/01/02 01:05:06;;;;;;;13.95;10.05;;;11.10;99.90;;;;;;5010179;28;20164;-86
2022/01/02 01:08:14;;;;;;;14.50;10.13;;;11.10;99.90;;;;;;4999686;28;20049;-87
2022/01/02 01:11:04;;;;;;;14.75;9.93;;;11.20;99.90;;;;;;4982712;28;20042;-86
2022/01/02 01:13:49;;;;;;;15.75;9.15;;;11.10;99.90;;;;;;5004923;28;20037;-87
2022/01/02 01:16:34;;;;;;;14.82;9.57;;;11.10;99.90;;;;;;4997066;28;20455;-85
2022/01/02 01:19:21;;;;;;;13.95;9.05;;;11.10;99.90;;;;;;5000793;28;20044;-85
2022/01/02 01:22:06;;;;;;;15.50;10.27;;;11.10;99.90;;;;;;4997275;28;20050;-85
2022/01/02 01:24:51;;;;;;;14.73;10.07;;;11.10;99.90;;;;;;5006482;28;20532;-85
2022/01/02 01:27:36;;;;;;;16.27;10.38;;;11.10;99.90;;;;;;4964509;28;20132;-86
2022/01/02 01:30:24;;;;;;;19.73;11.18;;;11.00;99.90;;;;;;5002686;28;20108;-85
2022/01/02 01:33:09;;;;;;;20.10;11.25;;;11.00;99.90;;;;;;5037719;28;20097;-87
2022/01/02 01:36:01;;;;;;;17.90;11.98;;;11.00;99.90;;;;;;5025270;28;20547;-86
2022/01/02 01:38:47;;;;;;;16.40;10.60;;;11.00;99.90;;;;;;5002639;28;20056;-86
2022/01/02 01:41:37;;;;;;;16.25;11.27;;;11.00;99.90;;;;;;4998324;28;20041;-85
2022/01/02 01:44:40;;;;;;;14.30;10.43;;;11.00;99.90;;;;;;4985678;28;20045;-86
2022/01/02 01:47:26;;;;;;;19.75;12.70;;;11.00;99.90;;;;;;4991586;28;20042;-87
2022/01/02 01:50:13;;;;;;;18.38;10.68;;;11.10;99.90;;;;;;5007981;28;20132;-86
2022/01/02 01:52:57;;;;;;;18.77;11.52;;;11.10;99.90;;;;;;5017031;28;20496;-86
2022/01/02 01:55:43;;;;;;;18.77;11.63;;;11.00;99.90;;;;;;5009013;28;20041;-86
2022/01/02 01:58:29;;;;;;;17.30;11.40;;;11.00;99.90;;;;;;4981007;28;20053;-86
2022/01/02 02:01:14;;;;;;;17.35;10.45;;;11.00;99.90;;;;;;5002725;28;20215;-86
2022/01/02 02:04:07;;;;;;;18.88;11.88;;;11.10;99.90;;;;;;5038053;28;20050;-87
2022/01/02 02:06:55;;;;;;;22.15;11.18;;;11.00;99.90;;;;;;5011630;28;21819;-86
2022/01/02 02:10:24;;;;;;;20.30;11.20;;;11.00;99.90;;;;;;5014004;28;20056;-85
2022/01/02 02:12:55;;;;;;;19.23;10.95;;;11.00;99.90;;;;;;5003662;28;20041;-87
2022/01/02 02:15:40;;;;;;;18.27;11.25;;;11.00;99.90;;;;;;4994744;28;20069;-85
2022/01/02 02:18:26;;;;;;;21.30;11.35;;;11.00;99.90;;;;;;5012744;28;20545;-85
2022/01/02 02:21:11;;;;;;;19.15;12.07;;;11.00;99.90;;;;;;4994179;28;20125;-85
2022/01/02 02:23:56;;;;;;;19.98;11.18;;;10.90;99.90;;;;;;5012856;28;20053;-87
2022/01/02 02:26:40;;;;;;;18.88;10.77;;;10.90;99.90;;;;;;5023790;28;20076;-86
2022/01/02 02:29:25;;;;;;;19.05;11.13;;;11.00;99.90;;;;;;5011443;28;20116;-85
2022/01/02 02:32:10;;;;;;;16.60;10.48;;;11.00;99.90;;;;;;5025805;28;20045;-85
2022/01/02 02:34:56;;;;;;;21.08;11.38;;;11.00;99.90;;;;;;4995445;28;20049;-86
2022/01/02 02:37:43;;;;;;;19.40;10.73;;;11.00;99.90;;;;;;5017242;28;20188;-86
2022/01/02 02:40:30;;;;;;;19.13;12.10;;;11.00;99.90;;;;;;5015203;28;20052;-86
2022/01/02 02:43:30;;;;;;;21.38;11.93;;;11.00;99.90;;;;;;5033387;28;20041;-85
2022/01/02 02:49:28;;;;;;;23.00;11.43;;;11.00;99.90;;;;;;5003791;28;20041;-88
2022/01/02 02:52:27;;;;;;;19.38;12.38;;;11.00;99.90;;;;;;4999310;28;20041;-87
2022/01/02 02:55:12;;;;;;;21.35;11.52;;;11.00;99.90;;;;;;5000596;28;20501;-86
2022/01/02 02:58:08;;;;;;;20.25;11.90;;;11.00;99.90;;;;;;4979154;28;20041;-88
2022/01/02 03:00:53;;;;;;;23.17;11.13;;;11.00;99.90;;;;;;4988507;28;20046;-86
2022/01/02 03:03:39;;;;;;;21.60;12.40;;;11.00;99.90;;;;;;4982554;28;20042;-87
2022/01/02 03:06:24;;;;;;;21.63;12.88;;;11.00;99.90;;;;;;4981507;28;20584;-87
2022/01/02 03:09:10;;;;;;;19.85;11.43;;;11.00;99.90;;;;;;4978851;28;20207;-88
2022/01/02 03:11:57;;;;;;;27.10;13.05;;;11.00;99.90;;;;;;4997319;28;20041;-88
2022/01/02 03:14:43;;;;;;;17.08;11.48;;;11.00;99.90;;;;;;4995016;28;20037;-88
2022/01/02 03:17:28;;;;;;;25.75;12.23;;;11.00;99.90;;;;;;4995820;28;20054;-87
2022/01/02 03:20:13;;;;;;;22.10;11.88;;;11.00;99.90;;;;;;4989141;28;20037;-87
2022/01/02 03:22:57;;;;;;;20.17;12.45;;;10.90;99.90;;;;;;4999011;28;20049;-85
2022/01/02 03:25:42;;;;;;;21.17;11.55;;;10.90;99.90;;;;;;5009937;28;20065;-87
2022/01/02 03:28:29;;;;;;;22.05;13.30;;;10.90;99.90;;;;;;5003408;28;20042;-87
2022/01/02 03:31:15;;;;;;;19.98;11.10;;;10.90;99.90;;;;;;4984307;28;20042;-86
2022/01/02 03:33:59;;;;;;;24.35;11.95;;;10.90;99.90;;;;;;4984662;28;20119;-87
2022/01/02 03:36:44;;;;;;;24.42;11.45;;;10.90;99.90;;;;;;4990419;28;20053;-88
2022/01/02 03:39:28;;;;;;;20.33;11.40;;;10.90;99.90;;;;;;5013039;28;20156;-87
2022/01/02 03:42:13;;;;;;;22.38;11.05;;;10.90;99.90;;;;;;4994312;28;20052;-88
2022/01/02 03:44:58;;;;;;;17.65;11.00;;;10.90;99.90;;;;;;5015724;28;20045;-88
2022/01/02 03:47:43;;;;;;;18.38;11.10;;;10.90;99.90;;;;;;5011341;28;20080;-87
2022/01/02 03:50:29;;;;;;;24.65;11.50;;;10.90;99.90;;;;;;4979770;28;20050;-87
2022/01/02 03:53:15;;;;;;;18.05;10.60;;;10.90;99.90;;;;;;4988175;28;20052;-87
2022/01/02 03:56:00;;;;;;;25.85;11.88;;;10.90;99.90;;;;;;4987049;28;20045;-88
2022/01/02 03:58:48;;;;;;;20.08;11.75;;;11.00;99.90;;;;;;5029120;28;20045;-87
2022/01/02 04:01:34;;;;;;;20.35;11.02;;;11.00;99.90;;;;;;5007645;28;20041;-87
2022/01/02 04:04:19;;;;;;;25.20;12.15;;;11.00;99.90;;;;;;4995010;28;20407;-87
2022/01/02 04:07:04;;;;;;;19.83;11.52;;;11.10;99.90;;;;;;4999472;28;20038;-88
2022/01/02 04:09:51;;;;;;;19.95;10.95;;;11.10;99.90;;;;;;4993367;28;20038;-88
2022/01/02 04:12:36;;;;;;;21.90;10.48;;;11.10;99.90;;;;;;4995271;28;20064;-87
2022/01/02 04:15:21;;;;;;;17.92;11.20;;;11.10;99.90;;;;;;5026156;28;20034;-88
2022/01/02 04:18:06;;;;;;;15.98;10.27;;;11.10;99.90;;;;;;5014293;28;20196;-87
2022/01/02 04:20:51;;;;;;;22.55;11.10;;;11.20;99.90;;;;;;5026674;28;20592;-86
2022/01/02 04:23:38;;;;;;;19.23;11.50;;;11.10;99.90;;;;;;4995048;28;20053;-85
2022/01/02 04:26:23;;;;;;;21.05;11.07;;;11.20;99.90;;;;;;4977417;28;20079;-87
2022/01/02 04:29:08;;;;;;;21.27;10.65;;;11.10;99.90;;;;;;4999708;28;20046;-87
2022/01/02 04:31:53;;;;;;;19.95;9.65;;;11.20;99.90;;;;;;4983602;28;20064;-86
2022/01/02 04:34:39;;;;;;;24.77;11.23;;;11.20;99.90;;;;;;4960917;28;20041;-87
2022/01/02 04:37:25;;;;;;;18.85;9.32;;;11.20;99.90;;;;;;4990853;28;20099;-87
2022/01/02 04:40:10;;;;;;;19.52;9.43;;;11.20;99.90;;;;;;4977907;28;20052;-86
2022/01/02 04:42:55;;;;;;;22.67;10.30;;;11.20;99.90;;;;;;5003643;28;20045;-87
2022/01/02 04:45:40;;;;;;;16.63;8.85;;;11.30;99.90;;;;;;4998326;28;20063;-87
2022/01/02 04:48:25;;;;;;;14.75;8.20;;;11.40;99.90;;;;;;5003576;28;20044;-86
2022/01/02 04:51:10;;;;;;;18.55;8.73;;;11.40;99.90;;;;;;5006308;28;20397;-86
2022/01/02 04:53:54;;;;;;;18.08;8.02;;;11.50;99.90;;;;;;5011494;28;20053;-85
2022/01/02 04:56:39;;;;;;;18.85;9.23;;;11.50;99.90;;;;;;4989663;28;20137;-86
2022/01/02 04:59:23;;;;;;;18.90;7.75;;;11.60;99.90;;;;;;4997236;28;20068;-87
2022/01/02 05:02:12;;;;;;;14.88;7.30;;;11.60;99.90;;;;;;5014549;28;20800;-87
2022/01/02 05:04:56;;;;;;;18.85;7.30;;;11.60;99.90;;;;;;4989626;28;20080;-88
2022/01/02 05:07:41;;;;;;;16.48;7.10;;;11.70;99.90;;;;;;5011976;28;20053;-88
2022/01/02 05:10:26;;;;;;;16.33;7.00;;;11.70;99.90;;;;;;5005598;28;20081;-86
2022/01/02 05:13:12;;;;;;;20.73;7.70;;;11.70;99.90;;;;;;4997384;28;20163;-86
2022/01/02 05:15:57;;;;;;;16.77;7.25;;;11.70;99.90;;;;;;5030159;28;20077;-86
2022/01/02 05:18:42;;;;;;;18.38;7.45;;;11.70;99.90;;;;;;5018018;28;20042;-86
2022/01/02 05:21:27;;;;;;;16.88;6.82;;;11.70;99.90;;;;;;5002974;28;20039;-86
2022/01/02 05:24:15;;;;;;;23.88;7.03;;;11.70;99.90;;;;;;5015008;28;20045;-86
2022/01/02 05:27:01;;;;;;;13.35;7.05;;;11.70;99.90;;;;;;4979358;28;20049;-86
2022/01/02 05:29:47;;;;;;;20.10;8.18;;;11.60;99.90;;;;;;4998848;28;20091;-85
2022/01/02 05:32:32;;;;;;;18.95;7.22;;;11.60;99.90;;;;;;4971282;28;20038;-85
2022/01/02 05:35:18;;;;;;;18.73;8.02;;;11.70;99.90;;;;;;4979114;28;20519;-85
2022/01/02 05:38:03;;;;;;;18.40;8.00;;;11.60;99.90;;;;;;4975767;28;20759;-85
2022/01/02 05:40:50;;;;;;;18.40;7.93;;;11.60;99.90;;;;;;4981750;28;20065;-86
2022/01/02 05:43:36;;;;;;;23.17;6.88;;;11.70;99.90;;;;;;5008997;28;20049;-85
2022/01/02 05:46:21;;;;;;;19.25;7.30;;;11.70;99.90;;;;;;4989396;28;20053;-85
2022/01/02 05:49:09;;;;;;;17.77;7.07;;;11.70;99.90;;;;;;4982086;28;20569;-86
2022/01/02 05:51:54;;;;;;;16.30;7.55;;;11.80;99.90;;;;;;4996337;28;20085;-86
2022/01/02 05:54:39;;;;;;;15.27;6.90;;;11.80;99.90;;;;;;4991913;28;20037;-85
2022/01/02 05:57:24;;;;;;;16.85;6.82;;;11.90;99.90;;;;;;4994907;28;20569;-83
2022/01/02 06:00:10;;;;;;;17.13;6.07;;;11.90;99.90;;;;;;5015126;28;20073;-86
2022/01/02 06:03:04;;;;;;;15.90;6.05;;;11.90;99.90;;;;;;4990988;28;20046;-87
2022/01/02 06:05:49;;;;;;;18.48;6.63;;;12.00;99.90;;;;;;4997091;28;20059;-85
2022/01/02 06:08:34;;;;;;;15.80;5.15;;;12.10;99.90;;;;;;4974704;28;20037;-86
2022/01/02 06:11:19;;;;;;;18.17;5.72;;;12.00;99.90;;;;;;4986659;28;20116;-86
2022/01/02 06:14:04;;;;;;;14.65;5.18;;;12.00;99.90;;;;;;5013290;28;20060;-86
2022/01/02 06:16:50;;;;;;;13.43;5.72;;;12.10;99.90;;;;;;5003601;28;20600;-87
2022/01/02 06:19:35;;;;;;;17.55;5.40;;;12.10;99.90;;;;;;5016356;28;20037;-86
2022/01/02 06:22:20;;;;;;;14.13;5.20;;;12.10;99.90;;;;;;4992427;28;20041;-85
2022/01/02 06:25:05;;;;;;;14.82;5.43;;;12.20;99.90;;;;;;5002815;28;20402;-87
2022/01/02 06:27:50;;;;;;;13.27;5.20;;;12.20;99.90;;;;;;4995488;28;20042;-86
2022/01/02 06:30:35;;;;;;;10.65;4.57;;;12.20;99.90;;;;;;5022534;28;20106;-87
2022/01/02 06:33:20;;;;;;;18.00;5.80;;;12.10;99.90;;;;;;4976587;28;20049;-88
2022/01/02 06:36:05;;;;;;;13.65;5.07;;;12.10;99.90;;;;;;4997479;28;20045;-88
2022/01/02 06:38:49;;;;;;;12.02;5.85;;;12.00;99.90;;;;;;4980099;28;20111;-86
2022/01/02 06:41:34;;;;;;;14.07;5.05;;;12.10;99.90;;;;;;4979457;28;20076;-86
2022/01/02 06:44:19;;;;;;;11.95;5.60;;;12.10;99.90;;;;;;4980169;28;20061;-86
2022/01/02 06:47:06;;;;;;;19.95;5.35;;;12.10;99.90;;;;;;4973430;28;20429;-86
2022/01/02 06:49:51;;;;;;;12.52;5.10;;;12.10;99.90;;;;;;5015462;28;20107;-86
2022/01/02 06:52:37;;;;;;;13.63;5.72;;;12.10;99.90;;;;;;5008159;28;20046;-86
2022/01/02 06:55:22;;;;;;;13.18;5.50;;;12.10;99.90;;;;;;4984890;28;20128;-87
2022/01/02 06:58:07;;;;;;;12.80;5.65;;;12.10;99.90;;;;;;4970453;28;20095;-86
2022/01/02 07:00:52;;;;;;;13.52;5.50;;;12.00;99.90;;;;;;4989786;28;20430;-87
2022/01/02 07:03:42;;;;;;;12.18;5.45;;;12.00;99.90;;;;;;5026744;28;20402;-87
2022/01/02 07:06:26;;;;;;;10.93;5.57;;;11.90;99.90;;;;;;4995772;28;20049;-87
2022/01/02 07:09:11;;;;;;;13.57;5.38;;;11.90;99.90;;;;;;4962297;28;20049;-85
2022/01/02 07:11:56;;;;;;;14.35;5.15;;;11.90;99.90;;;;;;5033087;28;20409;-85
2022/01/02 07:14:40;;;;;;;14.45;5.97;;;11.90;99.90;;;;;;5005210;28;20042;-87
2022/01/02 07:17:57;;;;;;;12.75;5.38;;;11.90;99.90;;;;;;5020043;28;20030;-88
2022/01/02 07:20:52;;;;;;;12.70;5.68;;;11.80;99.90;;;;;;5005237;28;20049;-87
2022/01/02 07:23:52;;;;;;;16.85;5.85;;;11.80;99.90;;;;;;4999879;28;20409;-86
2022/01/02 07:26:40;;;;;;;13.55;5.78;;;11.80;99.90;;;;;;4985626;28;20397;-88
2022/01/02 07:29:25;;;;;;;11.93;5.65;;;11.80;99.90;;;;;;4983357;28;20069;-87
2022/01/02 07:32:10;;;;;;;11.27;5.10;;;11.80;99.90;;;;;;4994505;28;20037;-88
2022/01/02 07:34:55;;;;;;;8.57;4.80;;;11.80;99.90;;;;;;4999983;28;20103;-86
2022/01/02 07:37:39;;;;;;;9.43;4.57;;;11.80;99.90;;;;;;5008443;28;20387;-87
2022/01/02 07:40:25;;;;;;;9.85;5.00;;;11.70;99.90;;;;;;4970942;28;20077;-86
2022/01/02 07:43:10;;;;;;;13.20;5.15;;;11.80;99.90;;;;;;4993112;28;20085;-85
2022/01/02 07:45:55;;;;;;;8.98;5.00;;;11.80;99.90;;;;;;5005132;28;20041;-87
2022/01/02 07:48:40;;;;;;;12.95;5.10;;;11.80;99.90;;;;;;5019770;28;20501;-87
2022/01/02 07:51:25;;;;;;;14.10;5.47;;;11.90;99.90;;;;;;5022319;28;20041;-87
2022/01/02 07:54:12;;;;;;;13.23;5.40;;;11.90;99.90;;;;;;5019702;28;20207;-86
2022/01/02 07:56:56;;;;;;;11.55;6.70;;;11.90;99.90;;;;;;4992373;28;20517;-87
2022/01/02 07:59:41;;;;;;;12.05;5.80;;;11.80;99.90;;;;;;5020293;28;20049;-87
2022/01/02 08:02:25;;;;;;;11.18;6.40;;;11.80;99.90;;;;;;4975720;28;20049;-87
2022/01/02 08:05:10;;;;;;;11.38;6.10;;;11.70;99.90;;;;;;4998711;28;20118;-86
2022/01/02 08:07:56;;;;;;;12.70;6.57;;;11.70;99.90;;;;;;5000379;28;20132;-87
2022/01/02 08:10:41;;;;;;;12.73;7.03;;;11.70;99.90;;;;;;4978088;28;20045;-87
2022/01/02 08:13:34;;;;;;;14.98;6.43;;;11.60;99.90;;;;;;5000611;28;20397;-87
2022/01/02 08:16:19;;;;;;;12.25;6.00;;;11.60;99.90;;;;;;5006630;28;20045;-87
2022/01/02 08:19:06;;;;;;;11.73;6.50;;;11.60;99.90;;;;;;5007204;28;20045;-86
2022/01/02 08:21:55;;;;;;;13.02;6.13;;;11.50;99.90;;;;;;5002975;28;20048;-85
2022/01/02 08:24:40;;;;;;;10.52;5.70;;;11.50;99.90;;;;;;5011736;28;20034;-83
2022/01/02 08:27:24;;;;;;;8.40;5.53;;;11.60;99.90;;;;;;4996424;28;20053;-82
2022/01/02 08:30:09;;;;;;;11.98;5.55;;;11.60;99.90;;;;;;4981666;28;20052;-87
2022/01/02 08:32:55;;;;;;;13.77;6.32;;;11.70;99.90;;;;;;5014602;28;20049;-87
2022/01/02 08:35:39;;;;;;;11.70;5.63;;;11.60;99.90;;;;;;4985173;28;20045;-85
2022/01/02 08:38:24;;;;;;;13.68;5.68;;;11.50;99.90;;;;;;5002310;28;20049;-84
2022/01/02 08:41:09;;;;;;;12.98;6.13;;;11.50;99.90;;;;;;4979828;28;20080;-85
2022/01/02 08:43:53;;;;;;;11.52;6.35;;;11.50;99.90;;;;;;5002091;28;20513;-85
2022/01/02 08:46:39;;;;;;;14.05;7.18;;;11.40;99.90;;;;;;5017942;28;20057;-85
2022/01/02 08:49:23;;;;;;;12.70;6.60;;;11.40;99.90;;;;;;4988387;28;20494;-84
2022/01/02 08:52:11;;;;;;;10.20;6.65;;;11.40;99.90;;;;;;5015650;28;20498;-85
2022/01/02 08:54:56;;;;;;;13.27;6.15;;;11.30;99.90;;;;;;5010528;28;20045;-85
2022/01/02 08:57:42;;;;;;;13.85;6.40;;;11.20;99.90;;;;;;5002365;28;20051;-83
2022/01/02 09:00:26;;;;;;;12.05;7.28;;;11.20;99.90;;;;;;4996376;28;20072;-85
2022/01/02 09:03:11;;;;;;;15.25;6.72;;;11.20;99.90;;;;;;5003904;28;20041;-84
2022/01/02 09:05:56;;;;;;;13.50;5.10;;;11.30;99.90;;;;;;5032388;28;20058;-85
2022/01/02 09:08:41;;;;;;;11.45;6.55;;;11.30;99.90;;;;;;5009591;28;20458;-84
2022/01/02 09:11:29;;;;;;;12.20;6.13;;;11.40;99.90;;;;;;4996761;28;20052;-85
2022/01/02 09:14:14;;;;;;;8.82;5.00;;;11.40;99.90;;;;;;4982589;28;20045;-84
2022/01/02 09:16:59;;;;;;;16.10;5.90;;;11.40;99.90;;;;;;4999655;28;20120;-85
2022/01/02 09:19:43;;;;;;;11.50;5.15;;;11.50;99.90;;;;;;5000698;28;20497;-85
2022/01/02 09:22:28;;;;;;;10.93;5.70;;;11.60;99.90;;;;;;4986849;28;20081;-85
2022/01/02 09:25:12;;;;;;;11.70;5.70;;;11.60;99.90;;;;;;5000668;28;20060;-84
2022/01/02 09:27:57;;;;;;;12.07;6.25;;;11.70;99.90;;;;;;5000966;28;20057;-85
2022/01/02 09:30:42;;;;;;;8.65;4.97;;;11.70;99.90;;;;;;4984838;28;20045;-86
2022/01/02 09:33:26;;;;;;;9.20;5.22;;;11.70;99.90;;;;;;5010011;28;20049;-83
2022/01/02 09:36:11;;;;;;;11.52;5.22;;;11.70;99.90;;;;;;5026997;28;20065;-83
2022/01/02 09:38:57;;;;;;;8.95;5.88;;;11.70;99.90;;;;;;4986454;28;20056;-83
2022/01/02 09:41:41;;;;;;;12.10;5.25;;;11.70;99.90;;;;;;5014286;28;20460;-83
2022/01/02 09:44:29;;;;;;;10.65;6.05;;;11.70;99.90;;;;;;4985183;28;20041;-84
2022/01/02 09:47:18;;;;;;;11.10;5.35;;;11.70;99.90;;;;;;5014358;28;20041;-83
2022/01/02 09:50:08;;;;;;;9.90;4.85;;;11.70;99.90;;;;;;5003088;28;20129;-83
2022/01/02 09:52:54;;;;;;;11.65;5.35;;;11.70;99.90;;;;;;4999299;28;20079;-83
2022/01/02 09:55:20;;;;;;;13.90;6.18;;;11.70;99.90;;;;;;4978617;28;20498;-84
2022/01/02 09:57:48;;;;;;;10.02;6.22;;;11.80;99.90;;;;;;4985566;28;20099;-85
2022/01/02 10:00:16;;;;;;;11.32;5.53;;;11.80;99.90;;;;;;4978819;28;20045;-83
2022/01/02 10:03:00;;;;;;;9.30;5.65;;;11.80;99.90;;;;;;4983487;28;20037;-84
2022/01/02 10:05:29;;;;;;;10.27;5.10;;;11.70;99.90;;;;;;4991171;28;20053;-84
2022/01/02 10:07:57;;;;;;;9.27;5.70;;;11.80;99.90;;;;;;4978273;28;20125;-85
2022/01/02 10:10:33;;;;;;;12.38;6.20;;;11.80;99.90;;;;;;4994429;28;20037;-82
2022/01/02 10:13:01;;;;;;;12.25;6.13;;;11.80;99.90;;;;;;4998973;28;20247;-83
2022/01/02 10:15:28;;;;;;;12.07;5.75;;;11.80;99.90;;;;;;5009132;28;20045;-84
2022/01/02 10:17:58;;;;;;;9.38;5.80;;;11.80;99.90;;;;;;4961395;28;20064;-83
2022/01/02 10:20:33;;;;;;;10.15;5.40;;;11.80;99.90;;;;;;4993892;28;20038;-84
2022/01/02 10:23:15;;;;;;;9.70;5.68;;;11.80;99.90;;;;;;5003963;28;20053;-82
2022/01/02 10:25:45;;;;;;;11.68;6.20;;;11.90;99.90;;;;;;5008883;28;20499;-85
2022/01/02 10:28:26;;;;;;;11.07;5.53;;;11.90;99.90;;;;;;4994042;28;20199;-84
2022/01/02 10:31:07;;;;;;;12.18;5.28;;;12.00;99.90;;;;;;4990677;28;20037;-80
2022/01/02 10:33:54;;;;;;;12.02;5.50;;;12.00;99.90;;;;;;4993962;28;20061;-84
2022/01/02 10:36:29;;;;;;;8.10;5.47;;;12.00;99.90;;;;;;4994178;28;20037;-84
2022/01/02 10:39:15;;;;;;;9.85;5.85;;;12.10;99.90;;;;;;4984321;28;20049;-83
2022/01/02 10:41:45;;;;;;;12.48;6.43;;;12.10;99.90;;;;;;4994557;28;20088;-83
2022/01/02 10:44:30;;;;;;;12.98;6.28;;;12.10;99.90;;;;;;5024867;28;20076;-84
2022/01/02 10:47:15;;;;;;;9.30;5.75;;;12.20;99.90;;;;;;5001789;28;20056;-84
2022/01/02 10:50:04;;;;;;;12.95;5.50;;;12.20;99.90;;;;;;5010287;28;20046;-85
2022/01/02 10:52:35;;;;;;;11.48;6.22;;;12.20;99.90;;;;;;4978021;28;20052;-80
2022/01/02 10:55:22;;;;;;;10.48;5.65;;;12.20;99.90;;;;;;5028379;28;20053;-85
2022/01/02 10:57:52;;;;;;;12.45;6.60;;;12.30;99.90;;;;;;4991091;28;20129;-86
2022/01/02 11:00:25;;;;;;;11.65;5.97;;;12.40;99.90;;;;;;4976544;28;20052;-82
2022/01/02 11:02:51;;;;;;;9.30;5.55;;;12.40;99.90;;;;;;5014285;28;20053;-85
2022/01/02 11:05:20;;;;;;;9.27;5.30;;;12.30;99.90;;;;;;5019109;28;20026;-85
2022/01/02 11:07:47;;;;;;;8.63;5.60;;;12.30;99.90;;;;;;5019540;28;20530;-84
2022/01/02 11:10:16;;;;;;;11.55;6.00;;;12.20;99.90;;;;;;5011199;28;20033;-82
2022/01/02 11:12:43;;;;;;;9.45;5.68;;;12.20;99.90;;;;;;4995972;28;20499;-82
2022/01/02 11:15:12;;;;;;;11.70;5.93;;;12.20;99.90;;;;;;4977518;28;20045;-83
2022/01/02 11:17:41;;;;;;;9.43;5.80;;;12.20;99.90;;;;;;5011164;28;20061;-83
2022/01/02 11:20:11;;;;;;;12.85;6.32;;;12.10;99.90;;;;;;4993507;28;20052;-82
2022/01/02 11:23:16;;;;;;;10.07;6.10;;;12.10;99.90;;;;;;5005488;28;20042;-81
2022/01/02 11:25:42;;;;;;;9.43;6.53;;;12.00;99.90;;;;;;4992513;28;20506;-82
2022/01/02 11:28:25;;;;;;;11.98;6.22;;;12.00;99.90;;;;;;5026042;28;20045;-81
2022/01/02 11:30:55;;;;;;;13.65;6.88;;;12.00;99.90;;;;;;4999785;28;20102;-81
2022/01/02 11:33:30;;;;;;;9.88;5.55;;;12.00;99.90;;;;;;5022066;28;20157;-82
2022/01/02 11:35:59;;;;;;;11.95;6.57;;;12.00;99.90;;;;;;4977181;28;20607;-81
2022/01/02 11:38:42;;;;;;;13.13;6.82;;;12.00;99.90;;;;;;4989514;28;20052;-81
2022/01/02 11:41:09;;;;;;;11.73;5.50;;;12.00;99.90;;;;;;4990942;28;20045;-81
2022/01/02 11:43:35;;;;;;;12.40;6.57;;;12.00;99.90;;;;;;4983663;28;20053;-82
2022/01/02 11:46:14;;;;;;;10.57;6.13;;;12.00;99.90;;;;;;5026001;28;20120;-81
2022/01/02 11:48:41;;;;;;;11.60;6.25;;;12.00;99.90;;;;;;5006243;28;20060;-83
2022/01/02 11:51:07;;;;;;;10.75;6.75;;;12.00;99.90;;;;;;4970442;28;20033;-82
2022/01/02 11:53:36;;;;;;;10.48;5.78;;;12.00;99.90;;;;;;4979156;28;20132;-81
2022/01/02 11:56:04;;;;;;;12.98;6.05;;;12.00;99.90;;;;;;5005574;28;20057;-84
2022/01/02 11:58:44;;;;;;;14.07;7.60;;;12.00;99.90;;;;;;4989375;28;20402;-84
2022/01/02 12:01:10;;;;;;;11.00;5.35;;;12.00;99.90;;;;;;5007875;28;20056;-82
2022/01/02 12:03:44;;;;;;;12.52;6.63;;;12.10;99.90;;;;;;5025980;28;20074;-83
2022/01/02 12:06:14;;;;;;;11.07;6.00;;;12.00;99.90;;;;;;4985498;28;20050;-84
2022/01/02 12:08:40;;;;;;;12.57;5.13;;;12.00;99.90;;;;;;4996189;28;20397;-84
2022/01/02 12:11:31;;;;;;;13.82;5.78;;;12.00;99.90;;;;;;4973595;28;20041;-84
2022/01/02 12:14:27;;;;;;;11.98;5.60;;;12.00;99.90;;;;;;4992963;28;20481;-82
2022/01/02 12:16:58;;;;;;;15.48;6.20;;;12.10;99.90;;;;;;4968189;28;20041;-83
2022/01/02 12:19:26;;;;;;;9.85;5.38;;;12.10;99.90;;;;;;4990467;28;20460;-83
2022/01/02 12:22:11;;;;;;;15.23;5.32;;;12.10;99.90;;;;;;4993667;28;20037;-84
2022/01/02 12:24:39;;;;;;;11.73;4.28;;;12.20;99.90;;;;;;5028387;28;20577;-84
2022/01/02 12:27:14;;;;;;;13.77;5.43;;;12.20;99.90;;;;;;5012197;28;20045;-84
2022/01/02 12:29:41;;;;;;;8.75;3.72;;;12.20;99.90;;;;;;4993839;28;20510;-85
2022/01/02 12:32:07;;;;;;;12.63;4.75;;;12.20;99.90;;;;;;4964677;28;20477;-84
2022/01/02 12:34:37;;;;;;;10.93;3.80;;;12.20;99.90;;;;;;5012112;28;20033;-84
2022/01/02 12:37:04;;;;;;;9.20;3.97;;;12.20;99.90;;;;;;4995326;28;20124;-84
2022/01/02 12:39:40;;;;;;;9.98;4.18;;;12.20;99.90;;;;;;5000327;28;20728;-85
2022/01/02 12:42:13;;;;;;;14.75;3.72;;;12.20;99.90;;;;;;5002726;28;20568;-85
2022/01/02 12:44:40;;;;;;;18.52;4.90;;;12.20;99.90;;;;;;5012225;28;20391;-84
2022/01/02 12:47:09;;;;;;;17.48;6.93;;;12.20;99.90;;;;;;5011035;28;20406;-84
2022/01/02 12:49:37;;;;;;;13.70;4.82;;;12.30;99.90;;;;;;4994346;28;20501;-85
2022/01/02 12:52:12;;;;;;;10.43;3.97;;;12.30;99.90;;;;;;4989654;28;20037;-86
2022/01/02 12:54:43;;;;;;;13.52;5.03;;;12.30;99.90;;;;;;4992098;28;20397;-82
2022/01/02 12:57:11;;;;;;;12.25;4.28;;;12.30;99.90;;;;;;5009589;28;20056;-83
2022/01/02 12:59:43;;;;;;;12.88;3.40;;;12.30;99.90;;;;;;4998772;28;20041;-84
2022/01/02 13:02:23;;;;;;;14.57;4.00;;;12.30;99.90;;;;;;4984413;28;20045;-83
2022/01/02 13:04:55;;;;;;;13.07;4.30;;;12.20;99.90;;;;;;5013156;28;20073;-84
2022/01/02 13:07:28;;;;;;;;;;;12.20;99.90;;;;;;5002695;28;20052;-84
2022/01/02 13:09:58;;;;;;;10.57;2.75;;;12.20;99.90;;;;;;4980001;28;20350;-82
2022/01/02 13:12:29;;;;;;;9.48;3.53;;;12.20;99.90;;;;;;4992632;28;20053;-82
2022/01/02 13:15:08;;;;;;;14.27;5.32;;;12.30;99.90;;;;;;5024131;28;20040;-84
2022/01/02 13:17:44;;;;;;;14.00;4.78;;;12.30;99.90;;;;;;4992046;28;20041;-84
2022/01/02 13:20:43;;;;;;;12.63;3.20;;;12.30;99.90;;;;;;4976965;28;20033;-85
2022/01/02 13:23:09;;;;;;;13.30;3.42;;;12.30;99.90;;;;;;4992527;28;20516;-84
2022/01/02 13:25:37;;;;;;;12.77;4.57;;;12.40;99.90;;;;;;4993250;28;20050;-84
2022/01/02 13:28:16;;;;;;;13.20;4.07;;;12.30;99.90;;;;;;4987390;28;20037;-85
2022/01/02 13:30:55;;;;;;;17.13;4.45;;;12.30;99.90;;;;;;4988115;28;20398;-84
2022/01/02 13:33:22;;;;;;;19.50;5.00;;;12.20;99.90;;;;;;4986747;28;20124;-84
2022/01/02 13:35:51;;;;;;;15.15;4.30;;;12.10;99.90;;;;;;4991769;28;20099;-85
2022/01/02 13:38:18;;;;;;;17.08;3.80;;;12.10;99.90;;;;;;5001813;28;20048;-84
2022/01/02 13:40:46;;;;;;;15.07;4.15;;;12.00;99.90;;;;;;4991067;28;20498;-84
2022/01/02 13:43:14;;;;;;;10.88;4.85;;;12.00;99.90;;;;;;4987456;28;20060;-82
2022/01/02 13:45:43;;;;;;;16.40;3.67;;;12.00;99.90;;;;;;5007760;28;20055;-83
2022/01/02 13:48:16;;;;;;;19.67;4.13;;;12.00;99.90;;;;;;4974754;28;20092;-84
2022/01/02 13:50:50;;;;;;;18.02;3.55;;;11.90;99.90;;;;;;4988296;28;20049;-84
2022/01/02 13:53:23;;;;;;;14.32;4.40;;;11.80;99.90;;;;;;5027365;28;20099;-84
2022/01/02 13:55:51;;;;;;;;;;;11.80;99.90;;;;;;4994570;28;20069;-83
2022/01/02 13:58:23;;;;;;;14.30;3.35;;;11.70;99.90;;;;;;5017642;28;20296;-83